createdAt,value
2022-08-03T00:01:30.313Z,0.30
2022-08-03T00:03:56.952Z,0.40
2022-08-03T00:06:23.331Z,0.30
2022-08-03T00:08:49.751Z,0.30
2022-08-03T00:11:16.154Z,0.87
2022-08-03T00:13:42.607Z,0.25
2022-08-03T00:16:10.654Z,0.20
2022-08-03T00:18:37.865Z,0.30
2022-08-03T00:21:05.223Z,0.38
2022-08-03T00:23:33.483Z,0.50
2022-08-03T00:26:18.641Z,0.30
2022-08-03T00:28:45.031Z,0.30
2022-08-03T00:31:13.708Z,0.70
2022-08-03T00:33:59.263Z,0.38
2022-08-03T00:36:28.441Z,0.53
2022-08-03T00:38:55.751Z,0.28
2022-08-03T00:41:22.262Z,0.40
2022-08-03T00:43:48.688Z,0.30
2022-08-03T00:46:20.548Z,0.40
2022-08-03T00:48:52.170Z,0.40
2022-08-03T00:51:21.155Z,0.38
2022-08-03T00:53:47.743Z,0.40
2022-08-03T00:56:17.564Z,0.60
2022-08-03T00:58:45.339Z,0.50
2022-08-03T01:01:12.458Z,0.80
2022-08-03T01:03:39.275Z,0.60
2022-08-03T01:06:18.677Z,0.50
2022-08-03T01:09:06.862Z,0.77
2022-08-03T01:11:59.938Z,0.60
2022-08-03T01:14:41.008Z,0.40
2022-08-03T01:17:21.246Z,0.50
2022-08-03T01:20:02.603Z,0.30
2022-08-03T01:22:39.945Z,0.40
2022-08-03T01:25:13.978Z,0.80
2022-08-03T01:27:42.959Z,0.80
2022-08-03T01:30:10.963Z,1.10
2022-08-03T01:33:00.029Z,0.50
2022-08-03T01:35:41.705Z,0.55
2022-08-03T01:38:22.640Z,0.40
2022-08-03T01:40:53.881Z,0.60
2022-08-03T01:43:55.165Z,0.50
2022-08-03T01:46:11.592Z,0.52
2022-08-03T01:48:40.127Z,0.75
2022-08-03T01:51:09.118Z,0.77
2022-08-03T01:53:36.999Z,0.60
2022-08-03T01:56:06.246Z,0.88
2022-08-03T01:58:35.915Z,0.68
2022-08-03T02:01:04.850Z,0.70
2022-08-03T02:03:36.771Z,0.90
2022-08-03T02:06:59.661Z,0.80
2022-08-03T02:08:53.015Z,1.42
2022-08-03T02:11:19.804Z,0.68
2022-08-03T02:13:48.391Z,1.00
2022-08-03T02:16:14.809Z,0.77
2022-08-03T02:18:42.398Z,1.57
2022-08-03T02:21:11.836Z,0.90
2022-08-03T02:23:58.170Z,1.40
2022-08-03T02:26:29.772Z,0.93
2022-08-03T02:28:59.418Z,0.77
2022-08-03T02:31:30.698Z,0.80
2022-08-03T02:34:02.202Z,0.80
2022-08-03T02:36:31.769Z,0.93
2022-08-03T02:39:00.878Z,1.23
2022-08-03T02:41:41.128Z,1.20
2022-08-03T02:44:09.770Z,1.20
2022-08-03T02:46:38.807Z,0.80
2022-08-03T02:49:50.821Z,0.88
2022-08-03T02:51:55.383Z,0.80
2022-08-03T02:54:24.944Z,1.00
2022-08-03T02:56:53.792Z,1.53
2022-08-03T02:59:21.395Z,1.20
2022-08-03T03:01:48.933Z,0.70
2022-08-03T03:04:16.435Z,0.68
2022-08-03T03:06:43.997Z,0.70
2022-08-03T03:09:13.610Z,0.90
2022-08-03T03:11:41.327Z,1.20
2022-08-03T03:14:10.350Z,0.90
2022-08-03T03:16:37.128Z,1.20
2022-08-03T03:19:04.202Z,1.60
2022-08-03T03:21:32.009Z,1.20
2022-08-03T03:23:59.797Z,1.30
2022-08-03T03:26:26.344Z,0.93
2022-08-03T03:28:53.034Z,1.83
2022-08-03T03:31:19.485Z,0.82
2022-08-03T03:33:46.514Z,0.90
2022-08-03T03:36:12.903Z,1.38
2022-08-03T03:38:39.355Z,1.10
2022-08-03T03:41:05.743Z,0.93
2022-08-03T03:43:32.310Z,1.15
2022-08-03T03:45:59.432Z,1.20
2022-08-03T03:48:26.360Z,0.75
2022-08-03T03:50:52.974Z,1.00
2022-08-03T03:53:19.676Z,1.25
2022-08-03T03:55:57.928Z,1.42
2022-08-03T03:58:29.543Z,1.13
2022-08-03T04:00:56.074Z,1.30
2022-08-03T04:03:22.505Z,1.40
2022-08-03T04:06:07.538Z,0.98
2022-08-03T04:09:02.855Z,1.30
2022-08-03T04:11:36.670Z,1.70
2022-08-03T04:14:08.008Z,0.85
2022-08-03T04:16:43.170Z,1.63
2022-08-03T04:19:30.310Z,0.90
2022-08-03T04:22:00.839Z,0.85
2022-08-03T04:24:32.974Z,1.27
2022-08-03T04:27:02.552Z,0.95
2022-08-03T04:29:33.534Z,0.82
2022-08-03T04:32:00.938Z,0.90
2022-08-03T04:34:29.472Z,0.85
2022-08-03T04:36:59.731Z,1.43
2022-08-03T04:39:31.762Z,1.25
2022-08-03T04:42:08.077Z,1.30
2022-08-03T04:44:42.461Z,1.60
2022-08-03T04:47:09.072Z,1.10
2022-08-03T04:49:39.827Z,1.47
2022-08-03T04:52:08.683Z,1.10
2022-08-03T04:54:50.532Z,2.40
2022-08-03T04:57:22.726Z,1.25
2022-08-03T05:00:02.257Z,1.38
2022-08-03T05:02:30.979Z,2.60
2022-08-03T05:04:57.861Z,1.60
2022-08-03T05:07:25.093Z,1.58
2022-08-03T05:09:57.679Z,1.10
2022-08-03T05:12:32.772Z,1.40
2022-08-03T05:15:00.129Z,1.30
2022-08-03T05:17:26.647Z,1.00
2022-08-03T05:19:53.016Z,1.33
2022-08-03T05:22:20.102Z,1.38
2022-08-03T05:24:46.653Z,1.33
2022-08-03T05:27:19.050Z,2.10
2022-08-03T05:29:50.271Z,1.83
2022-08-03T05:32:18.052Z,1.30
2022-08-03T05:34:44.567Z,1.30
2022-08-03T05:37:11.416Z,1.85
2022-08-03T05:39:38.201Z,1.97
2022-08-03T05:42:04.615Z,2.08
2022-08-03T05:44:31.704Z,1.40
2022-08-03T05:46:59.138Z,1.45
2022-08-03T05:49:25.537Z,1.30
2022-08-03T05:52:00.374Z,1.80
2022-08-03T05:54:55.920Z,1.75
2022-08-03T05:57:24.651Z,1.65
2022-08-03T05:59:53.913Z,1.33
2022-08-03T06:02:26.128Z,1.90
2022-08-03T06:04:52.501Z,1.67
2022-08-03T06:07:18.899Z,2.05
2022-08-03T06:10:34.109Z,2.00
2022-08-03T06:12:31.735Z,1.60
2022-08-03T06:14:58.082Z,1.73
2022-08-03T06:17:24.462Z,1.63
2022-08-03T06:19:53.799Z,1.92
2022-08-03T06:22:20.405Z,1.73
2022-08-03T06:24:53.400Z,2.17
2022-08-03T06:27:20.643Z,1.10
2022-08-03T06:30:03.770Z,1.60
2022-08-03T06:32:30.166Z,1.48
2022-08-03T06:34:56.550Z,1.55
2022-08-03T06:37:24.461Z,1.05
2022-08-03T06:39:50.823Z,1.95
2022-08-03T06:42:17.416Z,1.50
2022-08-03T06:44:43.916Z,1.20
2022-08-03T06:47:10.266Z,1.52
2022-08-03T06:49:36.750Z,1.17
2022-08-03T06:52:07.066Z,1.05
2022-08-03T06:54:33.761Z,2.70
2022-08-03T06:57:00.194Z,1.30
2022-08-03T07:00:08.851Z,2.08
2022-08-03T07:02:13.134Z,2.65
2022-08-03T07:04:45.934Z,1.73
2022-08-03T07:07:12.326Z,1.50
2022-08-03T07:09:38.681Z,1.67
2022-08-03T07:12:08.297Z,1.30
2022-08-03T07:14:34.972Z,1.23
2022-08-03T07:17:01.469Z,2.40
2022-08-03T07:19:31.023Z,1.50
2022-08-03T07:22:02.119Z,1.52
2022-08-03T07:24:29.162Z,1.75
2022-08-03T07:26:55.574Z,1.33
2022-08-03T07:29:21.967Z,1.38
2022-08-03T07:31:48.404Z,2.53
2022-08-03T07:34:15.093Z,2.13
2022-08-03T07:36:41.461Z,1.05
2022-08-03T07:39:15.347Z,1.40
2022-08-03T07:41:44.347Z,1.52
2022-08-03T07:44:10.733Z,1.63
2022-08-03T07:46:37.471Z,2.15
2022-08-03T07:49:03.929Z,1.75
2022-08-03T07:51:30.383Z,1.88
2022-08-03T07:53:57.704Z,2.05
2022-08-03T07:56:27.999Z,1.73
2022-08-03T07:58:55.484Z,1.75
2022-08-03T08:01:22.487Z,1.30
2022-08-03T08:03:52.652Z,2.03
2022-08-03T08:06:19.724Z,1.50
2022-08-03T08:08:46.488Z,2.17
2022-08-03T08:11:13.246Z,2.33
2022-08-03T08:13:39.647Z,2.00
2022-08-03T08:16:06.376Z,1.48
2022-08-03T08:18:32.832Z,2.30
2022-08-03T08:21:01.418Z,3.40
2022-08-03T08:23:41.781Z,2.45
2022-08-03T08:26:10.451Z,1.70
2022-08-03T08:28:36.856Z,1.75
2022-08-03T08:31:03.393Z,2.25
2022-08-03T08:36:16.340Z,2.20
2022-08-03T08:38:44.530Z,1.58
2022-08-03T08:41:11.629Z,1.63
2022-08-03T08:43:38.087Z,1.38
2022-08-03T08:46:07.974Z,2.53
2022-08-03T08:48:36.354Z,2.42
2022-08-03T08:51:03.360Z,3.17
2022-08-03T08:53:33.047Z,2.72
2022-08-03T08:56:01.092Z,2.42
2022-08-03T08:58:37.803Z,1.70
2022-08-03T09:01:05.258Z,2.55
2022-08-03T09:03:34.138Z,2.13
2022-08-03T09:06:02.018Z,1.88
2022-08-03T09:08:34.160Z,1.83
2022-08-03T09:11:00.629Z,2.37
2022-08-03T09:13:27.310Z,1.88
2022-08-03T09:16:16.287Z,1.67
2022-08-03T09:18:44.893Z,1.77
2022-08-03T09:21:35.548Z,2.63
2022-08-03T09:24:08.377Z,2.60
2022-08-03T09:26:37.966Z,1.83
2022-08-03T09:29:14.817Z,1.55
2022-08-03T09:31:44.521Z,2.30
2022-08-03T09:34:14.568Z,1.55
2022-08-03T09:36:46.379Z,2.23
2022-08-03T09:39:15.996Z,2.10
2022-08-03T09:42:04.895Z,2.70
2022-08-03T09:44:42.120Z,1.58
2022-08-03T09:47:10.198Z,2.15
2022-08-03T09:49:37.952Z,2.20
2022-08-03T09:52:37.945Z,1.67
2022-08-03T09:55:23.655Z,1.52
2022-08-03T09:58:07.157Z,1.65
2022-08-03T10:00:53.800Z,1.95
2022-08-03T10:03:20.471Z,2.47
2022-08-03T10:05:47.024Z,1.40
2022-08-03T10:08:19.017Z,2.17
2022-08-03T10:10:49.615Z,1.88
2022-08-03T10:13:19.249Z,2.28
2022-08-03T10:16:22.505Z,2.37
2022-08-03T10:18:32.932Z,2.22
2022-08-03T10:21:04.525Z,1.85
2022-08-03T10:23:37.678Z,1.67
2022-08-03T10:26:07.146Z,1.25
2022-08-03T10:28:45.071Z,2.20
2022-08-03T10:31:13.881Z,1.98
2022-08-03T10:33:49.518Z,2.17
2022-08-03T10:36:20.475Z,2.58
2022-08-03T10:38:52.618Z,2.13
2022-08-03T10:41:25.893Z,1.83
2022-08-03T10:44:09.685Z,1.60
2022-08-03T10:46:44.167Z,1.27
2022-08-03T10:49:17.215Z,1.40
2022-08-03T10:52:00.639Z,2.13
2022-08-03T10:54:58.950Z,3.50
2022-08-03T10:57:58.436Z,1.80
2022-08-03T11:00:27.496Z,2.22
2022-08-03T11:03:12.550Z,1.42
2022-08-03T11:05:41.952Z,1.90
2022-08-03T11:08:36.749Z,1.73
2022-08-03T11:11:18.595Z,2.40
2022-08-03T11:14:07.488Z,1.33
2022-08-03T11:16:50.114Z,1.85
2022-08-03T11:19:22.320Z,1.48
2022-08-03T11:21:48.883Z,1.87
2022-08-03T11:24:41.408Z,1.50
2022-08-03T11:27:24.198Z,1.95
2022-08-03T11:30:01.125Z,1.77
2022-08-03T11:32:50.270Z,1.60
2022-08-03T11:35:18.497Z,1.00
2022-08-03T11:38:03.324Z,2.10
2022-08-03T11:40:34.478Z,1.60
2022-08-03T11:43:01.885Z,1.92
2022-08-03T11:45:28.388Z,1.50
2022-08-03T11:47:55.747Z,1.53
2022-08-03T11:50:22.476Z,1.92
2022-08-03T11:52:50.133Z,1.80
2022-08-03T11:55:20.281Z,1.77
2022-08-03T11:58:58.106Z,1.40
2022-08-03T12:00:33.594Z,1.63
2022-08-03T12:03:09.018Z,2.08
2022-08-03T12:05:51.509Z,2.25
2022-08-03T12:08:30.987Z,1.90
2022-08-03T12:11:00.109Z,2.33
2022-08-03T12:14:08.891Z,1.93
2022-08-03T12:16:21.302Z,1.73
2022-08-03T12:18:59.135Z,1.63
2022-08-03T12:21:25.659Z,2.50
2022-08-03T12:23:58.938Z,1.45
2022-08-03T12:26:26.795Z,1.90
2022-08-03T12:28:53.167Z,2.22
2022-08-03T12:31:19.683Z,1.80
2022-08-03T12:33:59.679Z,1.83
2022-08-03T12:36:27.580Z,2.58
2022-08-03T12:38:57.058Z,1.80
2022-08-03T12:41:38.290Z,2.42
2022-08-03T12:44:06.184Z,2.00
2022-08-03T12:46:35.337Z,1.60
2022-08-03T12:49:11.997Z,1.13
2022-08-03T12:52:02.849Z,1.20
2022-08-03T12:54:35.857Z,1.13
2022-08-03T12:57:03.557Z,1.30
2022-08-03T12:59:34.873Z,1.58
2022-08-03T13:02:04.523Z,1.27
2022-08-03T13:04:36.508Z,1.30
2022-08-03T13:07:14.268Z,1.30
2022-08-03T13:09:43.447Z,1.15
2022-08-03T13:12:12.743Z,1.42
2022-08-03T13:14:39.667Z,1.70
2022-08-03T13:17:06.998Z,1.27
2022-08-03T13:19:34.637Z,1.13
2022-08-03T13:22:04.602Z,1.27
2022-08-03T13:24:32.398Z,0.90
2022-08-03T13:26:59.750Z,1.23
2022-08-03T13:29:26.189Z,1.17
2022-08-03T13:31:52.732Z,2.22
2022-08-03T13:34:22.905Z,1.98
2022-08-03T13:37:08.425Z,0.93
2022-08-03T13:39:48.097Z,1.77
2022-08-03T13:42:22.410Z,1.07
2022-08-03T13:44:48.809Z,1.75
2022-08-03T13:47:15.214Z,1.02
2022-08-03T13:49:42.031Z,1.27
2022-08-03T13:52:25.911Z,1.00
2022-08-03T13:54:52.322Z,0.90
2022-08-03T13:58:03.797Z,0.80
2022-08-03T14:00:06.839Z,0.93
2022-08-03T14:02:33.333Z,1.15
2022-08-03T14:04:59.688Z,1.13
2022-08-03T14:07:26.103Z,1.57
2022-08-03T14:09:52.441Z,1.00
2022-08-03T14:12:18.869Z,1.70
2022-08-03T14:14:45.231Z,1.13
2022-08-03T14:17:11.587Z,1.40
2022-08-03T14:19:52.745Z,1.00
2022-08-03T14:22:20.612Z,0.90
2022-08-03T14:24:46.982Z,0.65
2022-08-03T14:27:13.422Z,1.05
2022-08-03T14:29:39.771Z,0.70
2022-08-03T14:32:10.025Z,1.60
2022-08-03T14:34:39.242Z,1.17
2022-08-03T14:37:05.850Z,1.42
2022-08-03T14:42:20.185Z,0.80
2022-08-03T14:44:46.684Z,0.67
2022-08-03T14:47:13.767Z,1.00
2022-08-03T14:50:31.359Z,0.68
2022-08-03T14:52:26.722Z,0.90
2022-08-03T14:54:53.125Z,0.80
2022-08-03T14:57:19.757Z,1.20
2022-08-03T14:59:55.701Z,1.02
2022-08-03T15:02:28.253Z,0.70
2022-08-03T15:04:54.670Z,0.70
2022-08-03T15:07:21.253Z,0.60
2022-08-03T15:09:47.938Z,0.90
2022-08-03T15:12:14.352Z,0.93
2022-08-03T15:14:40.888Z,0.90
2022-08-03T15:17:07.816Z,1.00
2022-08-03T15:20:03.680Z,0.50
2022-08-03T15:22:25.447Z,0.67
2022-08-03T15:25:04.302Z,0.93
2022-08-03T15:28:04.035Z,0.80
2022-08-03T15:30:31.433Z,1.08
2022-08-03T15:32:57.817Z,0.93
2022-08-03T15:35:24.288Z,0.90
2022-08-03T15:37:51.764Z,0.80
2022-08-03T15:40:18.145Z,0.68
2022-08-03T15:42:44.513Z,1.83
2022-08-03T15:45:11.328Z,0.85
2022-08-03T15:47:39.373Z,0.57
2022-08-03T15:50:09.590Z,0.50
2022-08-03T15:52:36.338Z,0.40
2022-08-03T15:55:02.923Z,0.88
2022-08-03T15:57:29.299Z,0.70
2022-08-03T15:59:55.756Z,1.20
2022-08-03T16:02:22.223Z,0.70
2022-08-03T16:04:48.723Z,0.88
2022-08-03T16:07:15.738Z,0.80
2022-08-03T16:09:44.069Z,0.52
2022-08-03T16:12:15.578Z,0.77
2022-08-03T16:14:51.926Z,0.80
2022-08-03T16:17:19.343Z,0.50
2022-08-03T16:19:46.095Z,0.63
2022-08-03T16:22:12.845Z,0.77
2022-08-03T16:24:40.851Z,0.70
2022-08-03T16:27:10.259Z,1.23
2022-08-03T16:29:44.754Z,0.82
2022-08-03T16:32:11.552Z,1.10
2022-08-03T16:34:39.275Z,0.68
2022-08-03T16:37:35.325Z,0.70
2022-08-03T16:39:53.341Z,0.60
2022-08-03T16:42:19.711Z,0.50
2022-08-03T16:44:46.080Z,0.73
2022-08-03T16:47:22.261Z,0.60
2022-08-03T16:49:55.088Z,0.77
2022-08-03T16:52:23.782Z,0.52
2022-08-03T16:54:53.579Z,0.80
2022-08-03T16:57:56.028Z,0.80
2022-08-03T17:00:12.562Z,0.57
2022-08-03T17:03:00.851Z,0.50
2022-08-03T17:05:43.718Z,0.80
2022-08-03T17:08:14.822Z,0.50
2022-08-03T17:10:45.257Z,0.60
2022-08-03T17:13:21.852Z,0.50
2022-08-03T17:15:58.110Z,0.70
2022-08-03T17:18:33.321Z,0.95
2022-08-03T17:21:03.902Z,0.55
2022-08-03T17:23:39.076Z,0.63
2022-08-03T17:26:21.182Z,0.40
2022-08-03T17:28:56.465Z,0.70
2022-08-03T17:31:31.409Z,0.70
2022-08-03T17:34:00.992Z,0.57
2022-08-03T17:36:47.615Z,0.68
2022-08-03T17:39:27.075Z,1.67
2022-08-03T17:42:39.101Z,0.80
2022-08-03T17:44:55.334Z,0.50
2022-08-03T17:47:22.939Z,0.50
2022-08-03T17:49:56.831Z,0.70
2022-08-03T17:52:37.491Z,0.50
2022-08-03T17:55:55.336Z,0.80
2022-08-03T17:58:08.269Z,0.75
2022-08-03T18:00:55.727Z,0.73
2022-08-03T18:03:57.899Z,0.60
2022-08-03T18:06:30.405Z,1.00
2022-08-03T18:09:04.755Z,0.60
2022-08-03T18:11:37.080Z,0.73
2022-08-03T18:14:17.195Z,0.40
2022-08-03T18:16:57.475Z,0.60
2022-08-03T18:20:02.184Z,0.40
2022-08-03T18:22:13.878Z,0.60
2022-08-03T18:24:42.185Z,0.63
2022-08-03T18:27:10.604Z,0.40
2022-08-03T18:29:37.730Z,0.70
2022-08-03T18:32:21.913Z,0.80
2022-08-03T18:34:54.348Z,0.40
2022-08-03T18:37:25.108Z,0.75
2022-08-03T18:39:54.646Z,0.57
2022-08-03T18:42:25.942Z,0.60
2022-08-03T18:44:56.240Z,0.85
2022-08-03T18:47:52.550Z,0.57
2022-08-03T18:50:22.015Z,0.52
2022-08-03T18:52:54.547Z,0.88
2022-08-03T18:55:33.455Z,0.43
2022-08-03T18:58:09.498Z,0.60
2022-08-03T19:01:57.501Z,0.60
2022-08-03T19:04:09.688Z,0.50
2022-08-03T19:06:42.000Z,0.50
2022-08-03T19:09:33.302Z,0.60
2022-08-03T19:12:13.899Z,0.40
2022-08-03T19:14:56.228Z,0.50
2022-08-03T19:17:29.257Z,0.50
2022-08-03T19:19:58.304Z,0.40
2022-08-03T19:22:27.970Z,0.77
2022-08-03T19:24:58.335Z,0.43
2022-08-03T19:27:26.961Z,0.50
2022-08-03T19:29:59.835Z,1.30
2022-08-03T19:32:30.833Z,0.60
2022-08-03T19:34:59.439Z,0.50
2022-08-03T19:37:38.557Z,0.40
2022-08-03T19:40:10.797Z,0.40
2022-08-03T19:42:42.666Z,0.82
2022-08-03T19:45:14.494Z,0.68
2022-08-03T19:48:09.683Z,1.38
2022-08-03T19:50:37.298Z,0.50
2022-08-03T19:53:12.773Z,0.70
2022-08-03T19:55:48.852Z,0.47
2022-08-03T19:58:17.637Z,0.60
2022-08-03T20:00:55.503Z,0.60
2022-08-03T20:03:24.853Z,0.60
2022-08-03T20:05:52.142Z,0.80
2022-08-03T20:08:21.032Z,0.68
2022-08-03T20:10:48.895Z,0.60
2022-08-03T20:13:19.503Z,0.75
2022-08-03T20:15:46.440Z,0.70
2022-08-03T20:18:16.480Z,1.07
2022-08-03T20:20:50.239Z,1.83
2022-08-03T20:23:19.203Z,0.50
2022-08-03T20:25:57.257Z,1.77
2022-08-03T20:28:30.540Z,0.90
2022-08-03T20:30:57.489Z,1.83
2022-08-03T20:33:27.989Z,0.80
2022-08-03T20:36:13.329Z,1.05
2022-08-03T20:41:30.600Z,0.40
2022-08-03T20:43:59.167Z,1.30
2022-08-03T20:46:32.617Z,0.75
2022-08-03T20:49:06.144Z,0.50
2022-08-03T20:51:49.820Z,0.80
2022-08-03T20:54:28.937Z,0.70
2022-08-03T20:56:57.728Z,0.73
2022-08-03T20:59:28.741Z,0.60
2022-08-03T21:01:56.951Z,0.50
2022-08-03T21:04:23.880Z,0.60
2022-08-03T21:06:57.440Z,0.90
2022-08-03T21:09:33.334Z,0.80
2022-08-03T21:12:02.979Z,0.70
2022-08-03T21:13:13.458Z,0.80
2022-08-03T21:14:45.330Z,0.70
2022-08-03T21:17:25.076Z,0.60
2022-08-03T21:20:00.685Z,0.47
2022-08-03T21:22:32.322Z,0.70
2022-08-03T21:25:02.132Z,1.00
2022-08-03T21:27:31.655Z,0.90
2022-08-03T21:30:04.476Z,0.70
2022-08-03T21:32:33.261Z,0.80
2022-08-03T21:35:00.697Z,0.53
2022-08-03T21:37:28.316Z,0.88
2022-08-03T21:39:56.466Z,0.65
2022-08-03T21:42:23.821Z,0.88
2022-08-03T21:44:51.798Z,0.80
2022-08-03T21:47:19.731Z,0.77
2022-08-03T21:49:52.010Z,0.85
2022-08-03T21:52:39.948Z,0.60
2022-08-03T21:55:07.544Z,0.85
2022-08-03T21:57:37.664Z,0.80
2022-08-03T22:00:17.027Z,0.93
2022-08-03T22:02:53.193Z,0.80
2022-08-03T22:05:42.523Z,0.60
2022-08-03T22:08:09.507Z,0.68
2022-08-03T22:10:36.811Z,0.65
2022-08-03T22:13:03.375Z,1.17
2022-08-03T22:15:30.534Z,1.13
2022-08-03T22:17:57.467Z,0.63
2022-08-03T22:20:24.516Z,1.35
2022-08-03T22:22:55.957Z,0.80
2022-08-03T22:25:28.910Z,1.07
2022-08-03T22:27:56.929Z,0.93
2022-08-03T22:30:23.331Z,1.02
2022-08-03T22:32:53.140Z,0.70
2022-08-03T22:35:21.115Z,1.00
2022-08-03T22:37:49.503Z,1.00
2022-08-03T22:40:16.572Z,0.82
2022-08-03T22:42:45.933Z,0.68
2022-08-03T22:45:12.628Z,0.77
2022-08-03T22:47:59.815Z,1.20
2022-08-03T22:50:31.716Z,0.70
2022-08-03T22:52:59.431Z,1.42
2022-08-03T22:55:27.366Z,0.65
2022-08-03T22:57:55.804Z,0.63
2022-08-03T23:00:23.982Z,1.00
2022-08-03T23:02:51.564Z,0.87
2022-08-03T23:06:01.646Z,0.90
2022-08-03T23:08:11.230Z,1.20
2022-08-03T23:10:40.721Z,1.20
2022-08-03T23:13:10.909Z,0.93
2022-08-03T23:15:37.651Z,0.93
2022-08-03T23:18:06.269Z,1.00
2022-08-03T23:20:33.063Z,1.20
2022-08-03T23:23:00.517Z,1.08
2022-08-03T23:25:27.054Z,1.83
2022-08-03T23:28:04.598Z,1.37
2022-08-03T23:30:34.614Z,1.20
2022-08-03T23:33:02.183Z,1.35
2022-08-03T23:36:18.705Z,0.93
2022-08-03T23:38:36.791Z,1.17
2022-08-03T23:41:04.848Z,1.20
2022-08-03T23:43:51.653Z,1.05
2022-08-03T23:46:21.150Z,1.20
2022-08-03T23:48:47.542Z,1.00
2022-08-03T23:51:27.130Z,1.73
2022-08-03T23:54:26.585Z,1.67
2022-08-03T23:57:17.430Z,0.82
2022-08-03T23:59:54.874Z,1.23
